Time;durP1;ratioP1;P1;durP2;ratioP2;P2;SDS_P1;SDS_P2;PMS_P1;PMS_P2;Temp;Humidity;BMP_temperature;BMP_pressure;BME280_temperature;BME280_humidity;BME280_pressure;Samples;Min_cycle;Max_cycle;Signal;HPM_P1;HPM_P2
2023/07/30 00:00:18;;;;;;;4.18;2.25;;;;;;;13.87;56.15;100670.22;4949266;28;20580;-68
2023/07/30 00:02:43;;;;;;;3.80;1.85;;;;;;;13.89;56.27;100668.34;4951793;28;20057;-67
2023/07/30 00:05:11;;;;;;;4.93;2.28;;;;;;;13.87;56.29;100675.47;4951271;28;20045;-67
2023/07/30 00:07:40;;;;;;;3.47;2.13;;;;;;;13.86;56.06;100670.31;4945776;28;20521;-67
2023/07/30 00:10:06;;;;;;;6.72;3.22;;;;;;;13.68;56.37;100686.19;4952311;28;20068;-67
2023/07/30 00:12:31;;;;;;;7.18;2.47;;;;;;;13.82;56.16;100680.16;4966891;28;20503;-68
2023/07/30 00:14:59;;;;;;;3.47;2.40;;;;;;;13.76;56.05;100677.03;4968353;28;20060;-67
2023/07/30 00:17:24;;;;;;;7.40;2.58;;;;;;;13.73;56.09;100683.31;4968628;28;20031;-68
2023/07/30 00:19:50;;;;;;;4.50;3.38;;;;;;;13.64;56.18;100682.03;4970701;28;20097;-68
2023/07/30 00:22:19;;;;;;;4.78;2.67;;;;;;;13.57;56.50;100679.84;4968572;28;20049;-68
2023/07/30 00:24:44;;;;;;;6.97;2.85;;;;;;;13.18;57.50;100692.41;4962990;28;20064;-67
2023/07/30 00:27:10;;;;;;;6.63;2.13;;;;;;;13.50;56.54;100682.78;4966503;28;20532;-68
2023/07/30 00:29:35;;;;;;;7.97;2.72;;;;;;;13.52;56.59;100691.41;4962737;28;20137;-68
2023/07/30 00:32:03;;;;;;;8.95;2.45;;;;;;;13.53;56.39;100682.59;4969406;28;20041;-67
2023/07/30 00:34:31;;;;;;;7.38;2.95;;;;;;;13.58;56.30;100685.00;4956004;28;20054;-67
2023/07/30 00:36:56;;;;;;;11.20;2.60;;;;;;;13.56;56.13;100680.75;4947742;28;20256;-67
2023/07/30 00:39:22;;;;;;;8.13;2.97;;;;;;;13.53;56.00;100679.13;4946582;28;20064;-68
2023/07/30 00:41:47;;;;;;;4.43;2.47;;;;;;;13.61;55.87;100679.59;4947349;28;20031;-67
2023/07/30 00:44:13;;;;;;;6.78;2.58;;;;;;;13.43;56.46;100678.81;4955703;28;20046;-68
2023/07/30 00:46:38;;;;;;;9.00;3.00;;;;;;;13.53;56.06;100685.22;4966829;28;20116;-71
2023/07/30 00:49:07;;;;;;;8.30;3.40;;;;;;;13.32;56.73;100683.81;4958740;28;20065;-68
2023/07/30 00:51:33;;;;;;;5.68;2.60;;;;;;;13.50;56.10;100695.06;4957607;28;20041;-68
2023/07/30 00:54:02;;;;;;;10.48;3.35;;;;;;;13.25;56.92;100690.28;4963858;28;20132;-68
2023/07/30 00:56:28;;;;;;;7.38;2.50;;;;;;;13.43;56.54;100685.81;4948231;28;20502;-67
2023/07/30 00:58:54;;;;;;;2.92;2.03;;;;;;;13.50;56.10;100695.91;4949470;28;20550;-68
2023/07/30 01:01:20;;;;;;;5.63;3.40;;;;;;;13.37;56.70;100696.69;4953611;28;20121;-68
2023/07/30 01:03:47;;;;;;;7.10;2.80;;;;;;;13.39;56.30;100687.78;4951186;28;20188;-68
2023/07/30 01:06:12;;;;;;;7.70;2.80;;;;;;;13.50;56.27;100692.44;4926531;28;20122;-68
2023/07/30 01:08:38;;;;;;;3.63;1.55;;;;;;;13.57;55.97;100701.69;4932050;28;20137;-67
2023/07/30 01:11:05;;;;;;;10.10;2.70;;;;;;;13.45;56.19;100705.81;4920715;28;20022;-68
2023/07/30 01:13:33;;;;;;;7.82;3.40;;;;;;;13.43;56.17;100701.56;4946718;28;20163;-68
2023/07/30 01:15:59;;;;;;;5.40;2.75;;;;;;;13.50;56.10;100709.03;4951374;28;20062;-73
2023/07/30 01:18:24;;;;;;;4.85;2.13;;;;;;;13.52;55.53;100703.72;4943827;28;20035;-74
2023/07/30 01:20:53;;;;;;;3.22;1.73;;;;;;;13.51;55.64;100708.09;4928868;28;20051;-73
2023/07/30 01:23:19;;;;;;;6.07;2.17;;;;;;;13.44;55.67;100708.53;4949259;28;20141;-72
2023/07/30 01:25:46;;;;;;;6.63;2.75;;;;;;;13.45;55.49;100710.19;4965925;28;20723;-71
2023/07/30 01:28:19;;;;;;;5.55;1.95;;;;;;;13.39;55.63;100710.56;4956931;28;20030;-67
2023/07/30 01:30:46;;;;;;;5.20;2.65;;;;;;;13.26;55.99;100710.38;4961862;28;20048;-68
2023/07/30 01:33:15;;;;;;;6.68;2.58;;;;;;;13.27;56.18;100715.56;4969793;28;20611;-67
2023/07/30 01:35:45;;;;;;;5.85;3.22;;;;;;;13.04;57.24;100711.50;4964011;28;20118;-68
2023/07/30 01:38:12;;;;;;;7.97;3.13;;;;;;;13.28;56.14;100714.59;4969358;28;20042;-68
2023/07/30 01:40:38;;;;;;;6.45;2.33;;;;;;;13.30;55.79;100711.91;4963396;28;20119;-69
2023/07/30 01:43:03;;;;;;;10.13;2.90;;;;;;;13.23;56.07;100714.00;4968092;28;20041;-69
2023/07/30 01:45:29;;;;;;;7.30;2.92;;;;;;;13.20;56.37;100710.69;4947836;28;20038;-69
2023/07/30 01:47:54;;;;;;;4.95;2.80;;;;;;;13.20;56.21;100713.31;4946960;28;20081;-69
2023/07/30 01:50:20;;;;;;;9.90;2.53;;;;;;;12.93;57.07;100713.00;4959061;28;20644;-70
2023/07/30 01:52:46;;;;;;;6.30;3.00;;;;;;;13.05;56.43;100707.97;4965033;28;20559;-69
2023/07/30 01:55:11;;;;;;;6.05;2.65;;;;;;;13.08;56.29;100715.66;4967819;28;20540;-68
2023/07/30 01:57:37;;;;;;;8.77;3.22;;;;;;;12.98;56.73;100716.22;4979235;28;20121;-69
2023/07/30 02:00:05;;;;;;;6.35;2.28;;;;;;;12.85;57.04;100716.06;4965711;28;20038;-68
2023/07/30 02:02:35;;;;;;;5.78;2.25;;;;;;;12.97;56.67;100715.38;4950968;28;20030;-69
2023/07/30 02:05:01;;;;;;;8.38;3.08;;;;;;;13.05;56.67;100707.97;4967699;28;20042;-68
2023/07/30 02:07:26;;;;;;;7.93;2.92;;;;;;;13.06;56.60;100724.56;4969842;28;20096;-68
2023/07/30 02:09:51;;;;;;;12.68;3.35;;;;;;;12.96;56.86;100718.97;4979519;28;20058;-67
2023/07/30 02:12:17;;;;;;;6.28;3.72;;;;;;;13.02;56.35;100718.59;4948549;28;20045;-67
2023/07/30 02:14:43;;;;;;;7.72;3.00;;;;;;;13.06;56.38;100727.19;4968414;28;20095;-66
2023/07/30 02:17:09;;;;;;;7.43;2.75;;;;;;;13.00;56.67;100715.22;4964009;28;20536;-66
2023/07/30 02:19:34;;;;;;;9.18;3.03;;;;;;;13.02;56.20;100717.78;4962012;28;20733;-67
2023/07/30 02:22:04;;;;;;;6.70;2.95;;;;;;;12.98;56.54;100718.84;4970435;28;20093;-67
2023/07/30 02:24:32;;;;;;;7.13;2.97;;;;;;;12.95;56.26;100716.41;4965812;28;20040;-66
2023/07/30 02:27:00;;;;;;;5.75;2.03;;;;;;;12.94;56.32;100720.81;4967810;28;20022;-65
2023/07/30 02:29:25;;;;;;;5.22;2.40;;;;;;;12.94;56.00;100717.31;4967274;28;20566;-66
2023/07/30 02:31:50;;;;;;;7.28;3.30;;;;;;;12.84;56.40;100719.59;4964912;28;20117;-66
2023/07/30 02:34:16;;;;;;;6.15;2.30;;;;;;;12.82;56.58;100721.44;4973632;28;20060;-68
2023/07/30 02:36:43;;;;;;;12.13;3.00;;;;;;;12.64;57.25;100710.09;4969082;28;20038;-67
2023/07/30 02:39:08;;;;;;;5.03;1.83;;;;;;;12.63;57.76;100706.63;4973017;28;20108;-67
2023/07/30 02:41:34;;;;;;;11.80;3.30;;;;;;;12.74;57.14;100710.50;4966841;28;20043;-68
2023/07/30 02:43:59;;;;;;;5.95;2.88;;;;;;;12.79;56.87;100706.72;4973446;28;20064;-67
2023/07/30 02:46:25;;;;;;;4.85;2.83;;;;;;;12.81;56.77;100712.72;4951832;28;20035;-67
2023/07/30 02:48:53;;;;;;;6.75;2.08;;;;;;;12.78;56.60;100709.41;4963407;28;20057;-65
2023/07/30 02:51:29;;;;;;;4.68;2.20;;;;;;;12.75;56.69;100707.78;4970021;28;20034;-66
2023/07/30 02:54:06;;;;;;;10.43;2.83;;;;;;;12.73;56.70;100708.81;4967549;28;20398;-65
2023/07/30 02:56:35;;;;;;;3.63;2.45;;;;;;;12.67;56.76;100708.16;4967568;28;20082;-65
2023/07/30 02:59:01;;;;;;;9.88;2.22;;;;;;;12.60;57.20;100706.78;4971277;28;20034;-65
2023/07/30 03:01:26;;;;;;;9.15;3.20;;;;;;;12.58;57.57;100708.66;4967512;28;20400;-65
2023/07/30 03:03:52;;;;;;;5.35;2.58;;;;;;;12.67;57.14;100713.41;4969679;28;20505;-64
2023/07/30 03:06:17;;;;;;;10.77;2.60;;;;;;;12.53;57.63;100710.63;4984668;28;20030;-64
2023/07/30 03:08:43;;;;;;;14.65;2.90;;;;;;;12.54;57.45;100704.47;4951494;28;20701;-64
2023/07/30 03:11:14;;;;;;;9.00;2.83;;;;;;;12.63;57.41;100700.53;4957739;28;20085;-64
2023/07/30 03:13:40;;;;;;;7.03;2.75;;;;;;;12.60;57.27;100706.78;4983432;28;20272;-65
2023/07/30 03:16:05;;;;;;;22.33;3.85;;;;;;;12.60;57.16;100701.56;4970974;28;20803;-72
2023/07/30 03:18:30;;;;;;;5.47;3.35;;;;;;;12.65;57.26;100701.31;4971828;28;20105;-72
2023/07/30 03:21:00;;;;;;;10.23;2.33;;;;;;;12.72;57.06;100709.75;4967987;28;20022;-72
2023/07/30 03:23:26;;;;;;;4.43;2.30;;;;;;;12.72;57.03;100700.09;4971875;28;20031;-71
2023/07/30 03:25:52;;;;;;;12.07;3.58;;;;;;;12.19;58.72;100709.72;4968402;28;20058;-65
2023/07/30 03:28:19;;;;;;;6.95;2.33;;;;;;;12.48;58.01;100708.25;4969567;28;20049;-63
2023/07/30 03:30:47;;;;;;;10.15;2.90;;;;;;;12.40;58.13;100713.06;4964271;28;20053;-64
2023/07/30 03:33:12;;;;;;;7.10;3.38;;;;;;;12.23;58.92;100711.25;4973281;28;20110;-64
2023/07/30 03:35:43;;;;;;;10.05;2.97;;;;;;;12.55;57.89;100716.66;4949013;28;20086;-66
2023/07/30 03:38:11;;;;;;;11.63;2.67;;;;;;;12.78;57.42;100709.41;4946868;28;20036;-67
2023/07/30 03:40:37;;;;;;;10.23;3.17;;;;;;;12.66;57.87;100716.94;4947661;28;20101;-65
2023/07/30 03:43:03;;;;;;;8.88;3.75;;;;;;;12.48;58.64;100712.66;4934337;28;20042;-65
2023/07/30 03:45:28;;;;;;;7.15;2.70;;;;;;;12.75;57.96;100706.94;4965056;28;20038;-65
2023/07/30 03:47:54;;;;;;;10.00;3.42;;;;;;;12.92;57.31;100706.94;4963970;28;20089;-65
2023/07/30 03:50:19;;;;;;;9.48;2.80;;;;;;;13.01;57.17;100709.06;4947435;28;20539;-66
2023/07/30 03:52:46;;;;;;;6.18;3.55;;;;;;;13.14;56.74;100700.53;4946527;28;20549;-65
2023/07/30 03:55:12;;;;;;;12.38;4.30;;;;;;;13.08;56.90;100707.78;4965961;28;20229;-68
2023/07/30 03:57:37;;;;;;;7.25;2.90;;;;;;;13.05;57.08;100704.50;4964098;28;20513;-68
2023/07/30 04:00:04;;;;;;;7.68;2.97;;;;;;;13.22;56.61;100709.69;4966452;28;20600;-68
2023/07/30 04:02:39;;;;;;;6.70;2.75;;;;;;;13.32;56.32;100707.44;4969935;28;20046;-68
2023/07/30 04:05:05;;;;;;;10.73;2.53;;;;;;;13.36;56.31;100705.47;4980823;28;20547;-69
2023/07/30 04:07:33;;;;;;;8.20;3.08;;;;;;;13.43;56.14;100696.31;4966431;28;20030;-68
2023/07/30 04:09:58;;;;;;;11.48;2.88;;;;;;;13.50;56.09;100697.69;4963208;28;20038;-68
2023/07/30 04:12:24;;;;;;;10.60;3.58;;;;;;;13.39;56.17;100697.44;4967286;28;20505;-67
2023/07/30 04:14:49;;;;;;;11.57;3.38;;;;;;;13.23;56.43;100700.06;4961267;28;20046;-67
2023/07/30 04:17:16;;;;;;;11.00;2.95;;;;;;;13.36;56.36;100692.34;4952863;28;20501;-68
2023/07/30 04:19:41;;;;;;;10.48;3.75;;;;;;;13.34;56.18;100702.94;4956501;28;20049;-68
2023/07/30 04:22:07;;;;;;;8.77;2.67;;;;;;;13.30;56.38;100701.41;4943903;28;20033;-67
2023/07/30 04:24:32;;;;;;;6.18;3.08;;;;;;;13.00;57.44;100706.50;4937443;28;20725;-66
2023/07/30 04:26:58;;;;;;;15.50;3.50;;;;;;;12.85;57.90;100705.56;4927164;28;20027;-66
2023/07/30 04:29:25;;;;;;;13.27;3.45;;;;;;;13.11;57.02;100704.16;4944653;28;20054;-66
2023/07/30 04:31:51;;;;;;;13.10;3.22;;;;;;;13.18;56.96;100707.31;4945454;28;20023;-66
2023/07/30 04:34:17;;;;;;;11.70;3.28;;;;;;;13.25;56.96;100701.66;4940566;28;20412;-66
2023/07/30 04:36:43;;;;;;;6.05;2.85;;;;;;;13.47;56.81;100693.47;4946260;28;20035;-66
2023/07/30 04:39:09;;;;;;;7.75;2.97;;;;;;;13.71;56.19;100706.19;4940039;28;20525;-66
2023/07/30 04:41:34;;;;;;;12.70;3.58;;;;;;;13.55;56.58;100705.31;4947312;28;20050;-65
2023/07/30 04:44:00;;;;;;;10.82;2.88;;;;;;;13.81;56.01;100706.50;4958509;28;20053;-65
2023/07/30 04:46:27;;;;;;;13.00;2.90;;;;;;;13.83;56.11;100702.88;4932161;28;20132;-67
2023/07/30 04:48:54;;;;;;;13.68;3.08;;;;;;;13.24;57.36;100707.81;4948486;28;20542;-72
2023/07/30 04:51:20;;;;;;;12.23;3.00;;;;;;;13.45;56.53;100700.56;4948819;28;20169;-73
2023/07/30 04:53:46;;;;;;;10.20;2.60;;;;;;;13.85;56.14;100705.41;4944588;28;20034;-72
2023/07/30 04:56:11;;;;;;;11.82;2.80;;;;;;;13.51;56.65;100705.47;4981435;28;20038;-72
2023/07/30 04:58:37;;;;;;;15.77;3.15;;;;;;;13.64;56.70;100704.84;4953065;28;20037;-72
2023/07/30 05:01:05;;;;;;;10.77;2.92;;;;;;;13.91;55.99;100708.53;4969530;28;20027;-72
2023/07/30 05:03:31;;;;;;;9.90;3.13;;;;;;;13.75;56.32;100709.50;4969547;28;20062;-72
2023/07/30 05:05:56;;;;;;;13.25;3.13;;;;;;;13.45;56.70;100702.34;4959235;28;20109;-70
2023/07/30 05:08:24;;;;;;;10.73;2.97;;;;;;;13.65;56.62;100706.50;4967300;28;20038;-69
2023/07/30 05:10:49;;;;;;;9.20;3.80;;;;;;;13.68;56.42;100704.56;4966590;28;20048;-70
2023/07/30 05:13:15;;;;;;;10.48;2.70;;;;;;;14.07;55.95;100707.66;4967644;28;20042;-68
2023/07/30 05:15:40;;;;;;;11.43;3.35;;;;;;;13.74;56.04;100706.00;4950781;28;20070;-68
2023/07/30 05:18:05;;;;;;;14.30;2.45;;;;;;;14.06;55.34;100704.19;4949350;28;20696;-65
2023/07/30 05:20:36;;;;;;;18.58;4.15;;;;;;;14.18;55.63;100705.25;4947194;28;20400;-70
2023/07/30 05:23:04;;;;;;;16.55;1.95;;;;;;;14.21;55.19;100704.22;4948488;28;20081;-71
2023/07/30 05:25:29;;;;;;;10.43;2.20;;;;;;;14.11;56.03;100698.66;4939608;28;20054;-66
2023/07/30 05:27:55;;;;;;;23.77;3.25;;;;;;;15.11;54.03;100695.38;4928975;28;20031;-71
2023/07/30 05:30:20;;;;;;;9.38;2.70;;;;;;;16.67;50.47;100708.09;4946832;28;20069;-70
2023/07/30 05:32:45;;;;;;;12.32;2.10;;;;;;;17.81;47.27;100694.81;4950433;28;20046;-74
2023/07/30 05:35:11;;;;;;;11.57;2.13;;;;;;;17.99;45.12;100696.09;4949782;28;20083;-73
2023/07/30 05:37:36;;;;;;;9.48;1.58;;;;;;;18.10;45.26;100697.09;4949689;28;20030;-73
2023/07/30 05:40:03;;;;;;;9.70;2.15;;;;;;;19.02;44.06;100688.28;4945754;28;20063;-73
2023/07/30 05:42:28;;;;;;;4.53;1.20;;;;;;;18.62;42.95;100698.47;4940387;28;20039;-69
2023/07/30 05:44:54;;;;;;;10.32;1.73;;;;;;;16.56;48.04;100700.06;4956613;28;20101;-68
2023/07/30 05:47:21;;;;;;;14.48;2.40;;;;;;;16.00;49.42;100706.41;4958078;28;20030;-70
2023/07/30 05:49:47;;;;;;;9.45;1.50;;;;;;;15.63;51.05;100707.06;4954684;28;20045;-68
2023/07/30 05:52:15;;;;;;;6.93;1.50;;;;;;;17.38;46.35;100705.81;4948687;28;20187;-69
2023/07/30 05:54:43;;;;;;;6.72;1.55;;;;;;;16.05;50.07;100708.72;4943527;28;20670;-69
2023/07/30 05:57:09;;;;;;;13.73;2.33;;;;;;;15.70;51.13;100708.34;4948710;28;20039;-70
2023/07/30 05:59:34;;;;;;;11.50;2.63;;;;;;;15.43;51.58;100700.44;4954943;28;20053;-69
2023/07/30 06:02:03;;;;;;;10.25;2.13;;;;;;;15.54;51.16;100705.84;4966382;28;20030;-70
2023/07/30 06:04:33;;;;;;;10.27;2.42;;;;;;;15.32;51.88;100704.56;4959495;28;20078;-70
2023/07/30 06:07:05;;;;;;;6.20;1.58;;;;;;;15.89;51.27;100698.31;4931046;28;20027;-69
2023/07/30 06:09:38;;;;;;;12.45;2.63;;;;;;;15.90;50.21;100697.34;4959256;28;20042;-68
2023/07/30 06:12:13;;;;;;;8.00;2.08;;;;;;;16.12;50.52;100703.91;4970302;28;20044;-67
2023/07/30 06:14:46;;;;;;;9.18;1.52;;;;;;;16.22;49.75;100697.06;4953098;28;20054;-67
2023/07/30 06:17:27;;;;;;;8.88;1.90;;;;;;;16.33;49.83;100702.47;4949859;28;20694;-67
2023/07/30 06:19:58;;;;;;;14.90;2.45;;;;;;;15.56;51.41;100698.72;4954993;28;20045;-67
2023/07/30 06:22:31;;;;;;;23.70;1.88;;;;;;;17.01;48.41;100703.16;4952417;28;20556;-68
2023/07/30 06:24:59;;;;;;;6.75;1.40;;;;;;;17.44;47.21;100702.72;4956878;28;20046;-70
2023/07/30 06:27:29;;;;;;;8.38;1.48;;;;;;;17.28;47.99;100704.78;4970069;28;20447;-70
2023/07/30 06:29:57;;;;;;;8.60;1.63;;;;;;;18.71;45.62;100694.25;4938870;28;20049;-70
2023/07/30 06:32:26;;;;;;;9.75;1.48;;;;;;;19.93;41.17;100694.25;4964813;28;20085;-69
2023/07/30 06:34:57;;;;;;;10.45;1.73;;;;;;;20.40;40.48;100705.38;4936208;28;20034;-69
2023/07/30 06:37:23;;;;;;;9.07;2.08;;;;;;;18.40;43.80;100700.09;4965329;28;20031;-71
2023/07/30 06:39:49;;;;;;;5.47;1.27;;;;;;;18.77;44.43;100696.44;4978641;28;20046;-70
2023/07/30 06:42:15;;;;;;;10.85;1.60;;;;;;;17.67;45.82;100700.25;4969339;28;20117;-69
2023/07/30 06:44:40;;;;;;;14.15;1.30;;;;;;;16.81;48.21;100702.72;4971671;28;20046;-68
2023/07/30 06:47:06;;;;;;;10.98;1.65;;;;;;;16.86;48.82;100715.59;4969641;28;20026;-69
2023/07/30 06:49:34;;;;;;;12.43;2.55;;;;;;;16.62;49.54;100699.63;4966055;28;20605;-69
2023/07/30 06:52:00;;;;;;;17.55;2.83;;;;;;;16.18;50.00;100706.97;4972296;28;20030;-68
2023/07/30 06:54:26;;;;;;;5.90;2.10;;;;;;;16.39;49.56;100714.38;4969816;28;20042;-69
2023/07/30 06:56:52;;;;;;;22.58;2.17;;;;;;;16.65;48.15;100711.78;4968843;28;20124;-70
2023/07/30 06:59:18;;;;;;;14.60;1.67;;;;;;;16.63;48.76;100719.81;4969242;28;20077;-69
2023/07/30 07:01:44;;;;;;;12.88;1.40;;;;;;;15.80;50.70;100720.00;4970757;28;20060;-70
2023/07/30 07:04:10;;;;;;;7.68;1.33;;;;;;;16.20;49.41;100722.69;4967934;28;20046;-67
2023/07/30 07:06:35;;;;;;;8.23;1.23;;;;;;;15.85;50.30;100717.06;4950428;28;20026;-67
2023/07/30 07:09:01;;;;;;;10.32;1.60;;;;;;;15.91;49.82;100714.88;4970933;28;20058;-67
2023/07/30 07:11:26;;;;;;;8.57;1.70;;;;;;;15.99;49.80;100725.78;4952874;28;20038;-68
2023/07/30 07:13:52;;;;;;;10.18;2.60;;;;;;;15.69;50.47;100733.84;4967583;28;21500;-67
2023/07/30 07:16:18;;;;;;;9.02;1.05;;;;;;;15.75;50.80;100729.97;4967661;28;20034;-66
2023/07/30 07:18:44;;;;;;;7.43;0.80;;;;;;;16.19;49.85;100734.19;4968114;28;20489;-67
2023/07/30 07:21:10;;;;;;;7.30;1.30;;;;;;;16.45;49.18;100745.63;4967360;28;20061;-66
2023/07/30 07:23:35;;;;;;;5.18;1.52;;;;;;;15.32;51.31;100740.59;4965447;28;20516;-67
2023/07/30 07:26:01;;;;;;;7.57;1.17;;;;;;;15.76;50.75;100734.31;4972184;28;20018;-67
2023/07/30 07:28:27;;;;;;;14.40;1.90;;;;;;;15.56;51.23;100739.06;4981374;28;20493;-67
2023/07/30 07:30:54;;;;;;;16.17;2.08;;;;;;;15.57;51.26;100746.03;4969280;28;21179;-67
2023/07/30 07:33:20;;;;;;;12.25;1.80;;;;;;;15.49;51.44;100744.81;4967905;28;20156;-71
2023/07/30 07:35:46;;;;;;;8.80;1.83;;;;;;;14.91;52.58;100749.22;4965275;28;20164;-70
2023/07/30 07:38:11;;;;;;;6.47;1.05;;;;;;;14.93;53.14;100755.25;4970298;28;20033;-69
2023/07/30 07:40:41;;;;;;;9.23;1.60;;;;;;;15.29;51.84;100760.06;4967336;28;20555;-69
2023/07/30 07:43:07;;;;;;;6.03;1.75;;;;;;;15.38;52.00;100756.03;4966094;28;20136;-69
2023/07/30 07:45:33;;;;;;;9.25;1.35;;;;;;;15.40;51.79;100753.31;4967364;28;20034;-70
2023/07/30 07:47:59;;;;;;;10.75;1.58;;;;;;;15.29;52.44;100756.59;4969985;28;20046;-68
2023/07/30 07:50:24;;;;;;;5.78;0.93;;;;;;;15.40;51.79;100742.75;4966801;28;20086;-68
2023/07/30 07:52:50;;;;;;;9.38;1.17;;;;;;;15.67;51.24;100740.19;4971060;28;20113;-68
2023/07/30 07:55:16;;;;;;;5.40;0.73;;;;;;;15.41;51.64;100745.28;4968513;28;20152;-68
2023/07/30 07:57:42;;;;;;;10.68;1.08;;;;;;;15.70;50.96;100753.13;4969954;28;20124;-68
2023/07/30 08:00:08;;;;;;;7.70;1.40;;;;;;;15.12;52.42;100758.44;4970744;28;20137;-68
2023/07/30 08:02:40;;;;;;;8.43;1.73;;;;;;;14.96;52.79;100755.88;4954265;28;20096;-68
2023/07/30 08:05:07;;;;;;;7.13;0.90;;;;;;;15.79;51.51;100747.28;4968736;28;20839;-68
2023/07/30 08:07:32;;;;;;;5.85;1.05;;;;;;;15.62;51.78;100739.59;4965541;28;20116;-68
2023/07/30 08:09:58;;;;;;;6.03;1.80;;;;;;;16.32;50.15;100737.69;4952428;28;20046;-67
2023/07/30 08:12:23;;;;;;;14.02;2.33;;;;;;;16.36;49.57;100743.63;4966319;28;20030;-67
2023/07/30 08:14:50;;;;;;;5.28;1.20;;;;;;;16.34;49.87;100746.34;4972111;28;20046;-67
2023/07/30 08:17:16;;;;;;;13.23;1.77;;;;;;;15.41;51.34;100739.19;4966471;28;20026;-67
2023/07/30 08:19:41;;;;;;;10.68;1.48;;;;;;;15.89;50.73;100745.75;4964500;28;20042;-68
2023/07/30 08:22:07;;;;;;;5.75;1.10;;;;;;;15.99;50.45;100741.59;4949371;28;20663;-67
2023/07/30 08:24:33;;;;;;;8.40;1.17;;;;;;;15.63;50.98;100738.69;4966665;28;20042;-68
2023/07/30 08:26:59;;;;;;;9.10;1.15;;;;;;;16.10;50.54;100745.34;4952511;28;20062;-68
2023/07/30 08:29:24;;;;;;;6.22;1.52;;;;;;;15.48;51.74;100740.47;4966029;28;20057;-67
2023/07/30 08:31:50;;;;;;;11.13;1.05;;;;;;;15.73;51.51;100739.78;4968365;28;20049;-68
2023/07/30 08:34:15;;;;;;;9.15;1.48;;;;;;;15.96;51.01;100744.41;4962588;28;20050;-68
2023/07/30 08:36:41;;;;;;;6.22;1.50;;;;;;;15.31;51.46;100737.13;4969917;28;20129;-67
2023/07/30 08:39:07;;;;;;;7.25;1.10;;;;;;;15.86;50.33;100745.09;4970813;28;20104;-68
2023/07/30 08:41:32;;;;;;;11.60;0.93;;;;;;;16.43;49.58;100744.91;4968986;28;20478;-68
2023/07/30 08:43:58;;;;;;;7.13;1.40;;;;;;;15.38;50.72;100741.06;4965035;28;20049;-68
2023/07/30 08:46:27;;;;;;;5.88;1.20;;;;;;;15.79;50.07;100752.56;4963939;28;20543;-68
2023/07/30 08:48:53;;;;;;;11.43;0.93;;;;;;;15.73;50.24;100750.31;4979622;28;20937;-68
2023/07/30 08:51:21;;;;;;;9.90;1.13;;;;;;;16.28;48.92;100738.84;4966871;28;20200;-68
2023/07/30 08:53:47;;;;;;;6.55;1.40;;;;;;;16.44;48.40;100749.22;4949105;28;20034;-69
2023/07/30 08:56:13;;;;;;;4.35;1.27;;;;;;;17.53;46.28;100747.03;4968481;28;20039;-68
2023/07/30 08:58:40;;;;;;;11.38;1.23;;;;;;;17.77;44.73;100743.56;4960653;28;20061;-68
2023/07/30 09:01:10;;;;;;;9.65;0.65;;;;;;;17.98;44.20;100747.31;4967152;28;20247;-68
2023/07/30 09:03:39;;;;;;;5.68;1.05;;;;;;;17.23;44.49;100757.94;4945927;28;20129;-68
2023/07/30 09:06:05;;;;;;;14.70;1.75;;;;;;;17.85;43.74;100742.06;4952552;28;20053;-69
2023/07/30 09:08:32;;;;;;;10.07;1.00;;;;;;;17.98;43.23;100749.94;4963621;28;20030;-68
2023/07/30 09:11:06;;;;;;;9.30;0.93;;;;;;;17.55;45.10;100754.84;4965582;28;20538;-68
2023/07/30 09:13:37;;;;;;;6.68;1.23;;;;;;;17.85;44.88;100746.50;4960659;28;20110;-67
2023/07/30 09:16:09;;;;;;;8.90;1.00;;;;;;;17.88;43.39;100741.00;4947571;28;20121;-68
2023/07/30 09:18:43;;;;;;;7.05;1.48;;;;;;;17.66;45.01;100752.28;4940527;28;20047;-67
2023/07/30 09:21:13;;;;;;;9.88;0.80;;;;;;;17.60;43.90;100758.88;4954581;28;20504;-68
2023/07/30 09:23:46;;;;;;;8.25;1.58;;;;;;;18.72;42.86;100752.41;4947468;28;20041;-67
2023/07/30 09:26:13;;;;;;;12.10;1.65;;;;;;;19.24;41.81;100753.66;4970125;28;20026;-68
2023/07/30 09:28:39;;;;;;;8.30;1.17;;;;;;;18.72;43.05;100741.81;4954723;28;20049;-67
2023/07/30 09:31:07;;;;;;;11.15;1.10;;;;;;;19.98;40.94;100731.84;4967790;28;20932;-69
2023/07/30 09:33:34;;;;;;;5.18;0.90;;;;;;;20.27;39.57;100741.88;4960072;28;20088;-68
2023/07/30 09:36:03;;;;;;;9.25;1.35;;;;;;;19.75;39.12;100746.13;4947833;28;20238;-68
2023/07/30 09:38:32;;;;;;;9.18;1.90;;;;;;;19.46;39.39;100739.56;4943469;28;20039;-67
2023/07/30 09:41:02;;;;;;;9.52;1.17;;;;;;;19.72;40.13;100726.00;4942293;28;20038;-68
2023/07/30 09:43:31;;;;;;;3.58;0.93;;;;;;;19.99;39.72;100732.69;4949012;28;20521;-69
2023/07/30 09:46:04;;;;;;;7.72;1.23;;;;;;;19.48;41.06;100729.66;4972438;28;20509;-68
2023/07/30 09:48:31;;;;;;;6.43;0.90;;;;;;;19.64;40.19;100733.78;4973454;28;20068;-68
2023/07/30 09:51:02;;;;;;;6.13;0.70;;;;;;;19.14;40.16;100741.25;4971133;28;21130;-68
2023/07/30 09:53:34;;;;;;;5.35;0.68;;;;;;;18.81;41.40;100740.22;4970929;28;20696;-68
2023/07/30 09:56:02;;;;;;;3.30;0.57;;;;;;;18.16;41.35;100733.66;4954060;28;20433;-68
2023/07/30 09:58:28;;;;;;;7.45;0.90;;;;;;;18.73;41.06;100743.47;4953292;28;20027;-68
2023/07/30 10:00:59;;;;;;;6.55;0.88;;;;;;;18.54;40.91;100730.81;4970631;28;20304;-68
2023/07/30 10:03:25;;;;;;;5.45;0.70;;;;;;;17.84;40.64;100744.81;4965973;28;20065;-67
2023/07/30 10:05:58;;;;;;;8.57;0.73;;;;;;;17.01;41.80;100740.09;4952280;28;20554;-68
2023/07/30 10:08:27;;;;;;;6.75;0.47;;;;;;;17.67;41.11;100739.91;4950941;28;20034;-67
2023/07/30 10:10:54;;;;;;;7.07;0.40;;;;;;;17.12;42.36;100750.78;4951019;28;20050;-68
2023/07/30 10:13:21;;;;;;;11.60;0.70;;;;;;;16.60;43.74;100754.31;4952659;28;20042;-69
2023/07/30 10:15:47;;;;;;;2.65;0.50;;;;;;;16.77;41.51;100766.38;4953046;28;20650;-67
2023/07/30 10:18:12;;;;;;;9.05;0.50;;;;;;;16.89;40.98;100767.34;4953360;28;20070;-66
2023/07/30 10:20:38;;;;;;;4.65;0.32;;;;;;;16.35;41.59;100777.06;4964867;28;20137;-67
2023/07/30 10:23:05;;;;;;;2.58;0.20;;;;;;;16.09;41.32;100777.94;4974592;28;20049;-67
2023/07/30 10:25:47;;;;;;;4.32;1.08;;;;;;;16.10;41.96;100787.50;4961083;28;20622;-66
2023/07/30 10:28:33;;;;;;;4.00;0.70;;;;;;;16.95;40.47;100786.25;4973396;28;20687;-66
2023/07/30 10:31:03;;;;;;;6.85;0.43;;;;;;;16.46;41.56;100783.41;4974895;28;20125;-67
2023/07/30 10:33:52;;;;;;;2.75;0.50;;;;;;;16.83;42.45;100785.28;4969389;28;20042;-67
2023/07/30 10:36:33;;;;;;;7.32;1.02;;;;;;;16.60;43.17;100778.06;4954233;28;20131;-67
2023/07/30 10:39:11;;;;;;;5.15;0.30;;;;;;;16.50;43.17;100779.63;4949892;28;20042;-67
2023/07/30 10:41:37;;;;;;;6.32;0.52;;;;;;;15.99;43.73;100783.75;4948860;28;20049;-67
2023/07/30 10:44:03;;;;;;;1.73;0.25;;;;;;;16.88;43.31;100784.16;4957069;28;20062;-67
2023/07/30 10:46:28;;;;;;;3.33;0.60;;;;;;;16.65;43.04;100788.31;4971953;28;20113;-68
2023/07/30 10:48:54;;;;;;;4.85;0.50;;;;;;;16.20;44.45;100801.81;4963625;28;20604;-68
2023/07/30 10:51:20;;;;;;;2.78;0.30;;;;;;;16.59;43.39;100805.38;4954952;28;20911;-68
2023/07/30 10:53:48;;;;;;;1.90;0.20;;;;;;;16.60;43.46;100812.38;4948632;28;20093;-68
2023/07/30 10:56:16;;;;;;;1.42;0.40;;;;;;;16.63;43.65;100798.97;4946756;28;20578;-68
2023/07/30 10:58:42;;;;;;;4.30;0.60;;;;;;;16.37;45.24;100809.44;4948799;28;20042;-68
2023/07/30 11:01:09;;;;;;;4.75;0.60;;;;;;;15.95;46.65;100811.25;4951962;28;20039;-68
2023/07/30 11:03:35;;;;;;;3.85;0.38;;;;;;;15.88;47.30;100791.50;4946197;28;21196;-68
2023/07/30 11:06:02;;;;;;;5.30;0.70;;;;;;;16.06;47.41;100791.28;4970174;28;20105;-68
2023/07/30 11:08:42;;;;;;;10.32;0.88;;;;;;;15.88;47.46;100795.91;4964462;28;20030;-69
2023/07/30 11:11:10;;;;;;;6.30;0.47;;;;;;;16.45;47.60;100801.03;4966015;28;20100;-67
2023/07/30 11:13:46;;;;;;;3.45;0.20;;;;;;;16.29;46.71;100809.13;4944643;28;20039;-66
2023/07/30 11:16:12;;;;;;;8.40;0.52;;;;;;;15.58;48.34;100795.13;4942708;28;20038;-68
2023/07/30 11:18:39;;;;;;;5.18;0.60;;;;;;;16.48;47.10;100794.69;4944326;28;20553;-67
2023/07/30 11:21:07;;;;;;;4.60;0.50;;;;;;;16.42;47.95;100796.81;4950594;28;20194;-70